createdAt,value
2023-06-28T00:00:19.688Z,1.20
2023-06-28T00:02:48.091Z,1.08
2023-06-28T00:05:16.444Z,1.15
2023-06-28T00:07:44.767Z,0.98
2023-06-28T00:10:13.079Z,1.30
2023-06-28T00:12:41.451Z,1.38
2023-06-28T00:15:15.497Z,1.02
2023-06-28T00:17:43.929Z,1.00
2023-06-28T00:20:12.825Z,1.33
2023-06-28T00:22:41.449Z,1.27
2023-06-28T00:25:10.036Z,1.30
2023-06-28T00:27:38.547Z,1.33
2023-06-28T00:30:09.292Z,1.17
2023-06-28T00:32:38.422Z,1.35
2023-06-28T00:35:07.867Z,1.25
2023-06-28T00:37:36.241Z,1.20
2023-06-28T00:40:07.811Z,1.20
2023-06-28T00:42:36.066Z,1.48
2023-06-28T00:45:04.596Z,1.25
2023-06-28T00:47:33.088Z,1.30
2023-06-28T00:50:04.340Z,1.40
2023-06-28T00:52:33.927Z,1.15
2023-06-28T00:55:02.274Z,1.23
2023-06-28T00:57:31.681Z,1.50
2023-06-28T01:00:00.879Z,1.48
2023-06-28T01:02:30.786Z,1.00
2023-06-28T01:05:00.741Z,1.48
2023-06-28T01:07:36.349Z,1.70
2023-06-28T01:10:05.677Z,1.45
2023-06-28T01:12:35.524Z,1.38
2023-06-28T01:15:04.909Z,1.27
2023-06-28T01:17:33.292Z,1.30
2023-06-28T01:20:04.347Z,1.33
2023-06-28T01:22:34.441Z,1.60
2023-06-28T01:25:02.803Z,1.20
2023-06-28T01:27:31.481Z,1.08
2023-06-28T01:30:00.055Z,1.30
2023-06-28T01:32:28.639Z,1.33
2023-06-28T01:34:57.075Z,1.33
2023-06-28T01:37:25.445Z,1.42
2023-06-28T01:39:54.364Z,1.13
2023-06-28T01:42:23.070Z,1.38
2023-06-28T01:44:51.509Z,1.55
2023-06-28T01:47:20.097Z,1.50
2023-06-28T01:49:48.487Z,1.52
2023-06-28T01:52:17.179Z,1.55
2023-06-28T01:54:45.570Z,1.10
2023-06-28T01:57:14.113Z,1.48
2023-06-28T01:59:44.570Z,1.35
2023-06-28T02:02:12.826Z,1.60
2023-06-28T02:04:41.194Z,1.60
2023-06-28T02:07:09.737Z,1.55
2023-06-28T02:09:38.123Z,1.63
2023-06-28T02:12:06.950Z,1.30
2023-06-28T02:14:36.691Z,1.60
2023-06-28T02:17:05.564Z,1.48
2023-06-28T02:22:05.612Z,1.35
2023-06-28T02:24:34.785Z,1.40
2023-06-28T02:27:03.532Z,1.58
2023-06-28T02:29:32.111Z,1.30
2023-06-28T02:32:00.672Z,1.08
2023-06-28T02:34:29.216Z,1.35
2023-06-28T02:37:00.834Z,1.75
2023-06-28T02:39:29.652Z,1.80
2023-06-28T02:42:00.975Z,1.55
2023-06-28T02:44:29.261Z,1.77
2023-06-28T02:46:57.721Z,1.45
2023-06-28T02:49:26.432Z,1.48
2023-06-28T02:51:54.795Z,1.55
2023-06-28T02:54:23.442Z,1.50
2023-06-28T02:56:52.039Z,2.13
2023-06-28T02:59:20.274Z,1.50
2023-06-28T03:01:52.969Z,1.65
2023-06-28T03:04:21.331Z,1.45
2023-06-28T03:06:51.666Z,1.30
2023-06-28T03:09:21.744Z,1.60
2023-06-28T03:11:50.122Z,1.50
2023-06-28T03:14:18.491Z,1.30
2023-06-28T03:16:47.854Z,1.50
2023-06-28T03:19:16.313Z,1.55
2023-06-28T03:21:45.071Z,1.58
2023-06-28T03:24:13.683Z,1.42
2023-06-28T03:26:43.975Z,1.10
2023-06-28T03:29:12.658Z,1.30
2023-06-28T03:31:41.456Z,1.30
2023-06-28T03:34:10.719Z,1.52
2023-06-28T03:36:44.977Z,1.50
2023-06-28T03:39:23.290Z,1.60
2023-06-28T03:41:51.755Z,1.83
2023-06-28T03:44:20.346Z,1.50
2023-06-28T03:46:49.073Z,1.65
2023-06-28T03:49:22.243Z,1.40
2023-06-28T03:51:50.566Z,1.52
2023-06-28T03:54:21.491Z,1.60
2023-06-28T03:56:51.112Z,1.67
2023-06-28T03:59:19.626Z,2.13
2023-06-28T04:01:48.780Z,2.22
2023-06-28T04:04:18.011Z,2.10
2023-06-28T04:06:47.277Z,1.65
2023-06-28T04:09:16.831Z,1.77
2023-06-28T04:11:45.232Z,2.15
2023-06-28T04:14:13.525Z,1.98
2023-06-28T04:16:44.477Z,2.60
2023-06-28T04:19:13.052Z,2.05
2023-06-28T04:21:41.631Z,2.10
2023-06-28T04:24:09.932Z,1.50
2023-06-28T04:26:38.277Z,1.90
2023-06-28T04:29:06.883Z,1.70
2023-06-28T04:31:36.765Z,1.95
2023-06-28T04:34:06.436Z,2.35
2023-06-28T04:36:34.729Z,2.33
2023-06-28T04:39:04.469Z,2.25
2023-06-28T04:41:32.875Z,2.30
2023-06-28T04:44:01.222Z,1.90
2023-06-28T04:46:29.466Z,2.28
2023-06-28T04:48:58.262Z,2.30
2023-06-28T04:51:30.637Z,2.65
2023-06-28T04:54:00.195Z,2.97
2023-06-28T04:56:29.342Z,2.40
2023-06-28T04:58:57.765Z,2.25
2023-06-28T05:01:27.133Z,2.30
2023-06-28T05:03:56.198Z,2.53
2023-06-28T05:06:25.421Z,2.05
2023-06-28T05:08:53.774Z,2.30
2023-06-28T05:11:22.011Z,2.15
2023-06-28T05:13:50.443Z,2.63
2023-06-28T05:16:38.109Z,2.38
2023-06-28T05:19:08.836Z,2.00
2023-06-28T05:21:37.389Z,1.73
2023-06-28T05:24:05.879Z,1.80
2023-06-28T05:26:33.847Z,2.25
2023-06-28T05:29:02.391Z,2.10
2023-06-28T05:31:30.806Z,2.15
2023-06-28T05:33:59.829Z,1.98
2023-06-28T05:36:28.211Z,2.25
2023-06-28T05:38:59.756Z,2.08
2023-06-28T05:41:28.097Z,1.95
2023-06-28T05:43:56.414Z,2.30
2023-06-28T05:46:24.812Z,2.42
2023-06-28T05:48:54.226Z,2.50
2023-06-28T05:51:22.558Z,2.65
2023-06-28T05:53:50.798Z,3.00
2023-06-28T05:56:19.215Z,2.22
2023-06-28T05:58:47.545Z,2.72
2023-06-28T06:01:15.949Z,2.53
2023-06-28T06:03:44.566Z,3.00
2023-06-28T06:06:13.038Z,2.30
2023-06-28T06:08:41.385Z,2.97
2023-06-28T06:11:09.791Z,2.35
2023-06-28T06:13:38.052Z,2.28
2023-06-28T06:16:06.491Z,2.40
2023-06-28T06:18:40.976Z,3.10
2023-06-28T06:21:09.381Z,2.42
2023-06-28T06:23:37.673Z,2.70
2023-06-28T06:26:05.946Z,2.70
2023-06-28T06:28:34.201Z,2.10
2023-06-28T06:31:02.566Z,2.17
2023-06-28T06:33:31.069Z,2.20
2023-06-28T06:35:59.353Z,2.55
2023-06-28T06:38:27.620Z,2.65
2023-06-28T06:40:55.898Z,1.77
2023-06-28T06:43:24.264Z,1.73
2023-06-28T06:45:53.217Z,2.65
2023-06-28T06:48:21.532Z,2.05
2023-06-28T06:50:50.880Z,1.80
2023-06-28T06:53:19.436Z,1.60
2023-06-28T06:55:47.842Z,1.35
2023-06-28T06:58:16.301Z,1.70
2023-06-28T07:00:44.584Z,1.77
2023-06-28T07:03:13.065Z,1.35
2023-06-28T07:05:41.799Z,1.55
2023-06-28T07:08:10.279Z,1.98
2023-06-28T07:10:38.586Z,1.48
2023-06-28T07:13:06.971Z,2.00
2023-06-28T07:15:35.187Z,1.42
2023-06-28T07:18:04.976Z,1.42
2023-06-28T07:20:33.573Z,1.27
2023-06-28T07:23:02.513Z,1.63
2023-06-28T07:25:31.310Z,1.45
2023-06-28T07:28:00.357Z,1.30
2023-06-28T07:30:31.382Z,1.45
2023-06-28T07:32:59.794Z,1.30
2023-06-28T07:35:28.081Z,1.60
2023-06-28T07:37:56.664Z,1.45
2023-06-28T07:40:24.958Z,1.80
2023-06-28T07:42:53.231Z,1.55
2023-06-28T07:45:21.515Z,1.50
2023-06-28T07:47:49.933Z,1.25
2023-06-28T07:50:21.209Z,1.35
2023-06-28T07:52:49.579Z,1.48
2023-06-28T07:55:17.971Z,1.50
2023-06-28T07:57:46.231Z,1.38
2023-06-28T08:00:15.311Z,1.25
2023-06-28T08:02:43.706Z,1.40
2023-06-28T08:05:12.103Z,1.20
2023-06-28T08:07:40.545Z,2.10
2023-06-28T08:10:09.525Z,1.02
2023-06-28T08:12:37.925Z,1.83
2023-06-28T08:15:06.991Z,1.20
2023-06-28T08:17:35.285Z,1.30
2023-06-28T08:20:04.076Z,1.40
2023-06-28T08:22:32.367Z,1.10
2023-06-28T08:25:00.734Z,1.30
2023-06-28T08:27:29.127Z,1.10
2023-06-28T08:29:59.573Z,2.15
2023-06-28T08:32:29.128Z,1.27
2023-06-28T08:34:57.532Z,1.25
2023-06-28T08:37:25.946Z,0.98
2023-06-28T08:39:54.492Z,1.00
2023-06-28T08:42:23.402Z,1.17
2023-06-28T08:44:53.188Z,1.23
2023-06-28T08:47:21.740Z,1.07
2023-06-28T08:49:50.987Z,1.10
2023-06-28T08:52:20.026Z,0.80
2023-06-28T08:54:48.819Z,1.23
2023-06-28T08:57:20.778Z,1.20
2023-06-28T08:59:49.151Z,1.27
2023-06-28T09:02:19.288Z,1.00
2023-06-28T09:04:52.356Z,1.30
2023-06-28T09:07:22.915Z,1.00
2023-06-28T09:12:21.282Z,1.10
2023-06-28T09:14:51.165Z,1.38
2023-06-28T09:17:21.370Z,1.42
2023-06-28T09:19:52.882Z,1.10
2023-06-28T09:22:22.753Z,1.45
2023-06-28T09:24:53.801Z,0.90
2023-06-28T09:27:22.285Z,1.33
2023-06-28T09:30:16.931Z,1.10
2023-06-28T09:32:51.222Z,1.38
2023-06-28T09:35:20.621Z,1.02
2023-06-28T09:38:05.443Z,1.20
2023-06-28T09:40:37.022Z,1.20
2023-06-28T09:43:05.481Z,1.30
2023-06-28T09:45:39.157Z,1.42
2023-06-28T09:48:07.863Z,1.17
2023-06-28T09:50:42.321Z,1.13
2023-06-28T09:53:18.325Z,1.60
2023-06-28T09:55:50.409Z,1.65
2023-06-28T09:58:23.900Z,1.50
2023-06-28T10:00:52.506Z,1.38
2023-06-28T10:03:27.047Z,1.40
2023-06-28T10:05:57.942Z,1.00
2023-06-28T10:08:26.516Z,1.17
2023-06-28T10:10:57.073Z,1.25
2023-06-28T10:13:32.417Z,1.05
2023-06-28T10:16:15.872Z,1.35
2023-06-28T10:18:44.441Z,1.35
2023-06-28T10:21:13.091Z,1.20
2023-06-28T10:23:42.486Z,1.17
2023-06-28T10:26:11.693Z,1.30
2023-06-28T10:28:41.654Z,1.25
2023-06-28T10:31:11.739Z,1.10
2023-06-28T10:33:40.467Z,1.33
2023-06-28T10:36:08.770Z,0.90
2023-06-28T10:38:45.042Z,1.17
2023-06-28T10:41:16.807Z,1.15
2023-06-28T10:43:45.855Z,1.20
2023-06-28T10:46:26.581Z,1.17
2023-06-28T10:48:56.762Z,1.23
2023-06-28T10:51:32.511Z,1.40
2023-06-28T10:54:16.755Z,1.10
2023-06-28T10:56:50.164Z,1.50
2023-06-28T10:59:19.407Z,1.13
2023-06-28T11:01:50.313Z,1.30
2023-06-28T11:04:25.661Z,1.27
2023-06-28T11:07:18.060Z,1.25
2023-06-28T11:10:18.042Z,1.23
2023-06-28T11:12:52.494Z,1.63
2023-06-28T11:15:30.608Z,1.60
2023-06-28T11:18:20.166Z,1.88
2023-06-28T11:20:58.138Z,1.35
2023-06-28T11:23:41.394Z,1.40
2023-06-28T11:26:37.692Z,1.60
2023-06-28T11:29:23.095Z,1.42
2023-06-28T11:31:58.827Z,1.48
2023-06-28T11:34:29.271Z,1.50
2023-06-28T11:39:26.473Z,1.60
2023-06-28T11:41:54.741Z,1.20
2023-06-28T11:44:22.993Z,1.80
2023-06-28T11:46:51.388Z,1.15
2023-06-28T11:49:20.470Z,1.55
2023-06-28T11:51:52.632Z,2.38
2023-06-28T11:54:21.286Z,1.90
2023-06-28T11:56:50.846Z,1.45
2023-06-28T11:59:23.242Z,2.05
2023-06-28T12:02:07.825Z,1.15
2023-06-28T12:04:38.534Z,1.35
2023-06-28T12:07:07.396Z,1.40
2023-06-28T12:09:37.823Z,1.50
2023-06-28T12:12:08.000Z,1.27
2023-06-28T12:14:45.942Z,1.48
2023-06-28T12:17:14.357Z,1.30
2023-06-28T12:19:44.914Z,1.40
2023-06-28T12:22:13.315Z,1.50
2023-06-28T12:24:43.366Z,1.45
2023-06-28T12:27:11.742Z,2.00
2023-06-28T12:29:43.237Z,1.33
2023-06-28T12:32:16.504Z,1.48
2023-06-28T12:34:52.867Z,1.70
2023-06-28T12:37:35.421Z,1.27
2023-06-28T12:40:08.830Z,1.20
2023-06-28T12:42:37.143Z,1.52
2023-06-28T12:45:07.385Z,2.50
2023-06-28T12:50:04.800Z,1.35
2023-06-28T12:52:33.256Z,1.30
2023-06-28T12:55:02.036Z,1.48
2023-06-28T12:57:30.317Z,1.40
2023-06-28T12:59:58.864Z,0.98
2023-06-28T13:02:27.842Z,1.10
2023-06-28T13:04:59.818Z,1.20
2023-06-28T13:07:28.173Z,1.40
2023-06-28T13:09:56.558Z,1.65
2023-06-28T13:12:25.226Z,1.48
2023-06-28T13:14:53.727Z,1.75
2023-06-28T13:17:22.541Z,1.52
2023-06-28T13:19:51.746Z,1.10
2023-06-28T13:22:19.972Z,1.15
2023-06-28T13:24:48.303Z,1.20
2023-06-28T13:27:16.617Z,1.90
2023-06-28T13:29:44.893Z,1.27
2023-06-28T13:32:13.131Z,1.42
2023-06-28T13:34:41.363Z,1.15
2023-06-28T13:37:23.137Z,1.88
2023-06-28T13:39:56.408Z,1.00
2023-06-28T13:42:26.331Z,1.63
2023-06-28T13:44:54.854Z,1.05
2023-06-28T13:47:23.523Z,1.20
2023-06-28T13:49:51.892Z,1.20
2023-06-28T13:52:20.977Z,1.73
2023-06-28T13:54:49.280Z,1.33
2023-06-28T13:57:17.602Z,1.42
2023-06-28T13:59:45.853Z,1.35
2023-06-28T14:02:19.893Z,1.30
2023-06-28T14:04:50.566Z,1.60
2023-06-28T14:07:18.905Z,1.55
2023-06-28T14:09:47.231Z,1.23
2023-06-28T14:12:15.487Z,1.27
2023-06-28T14:14:44.025Z,1.20
2023-06-28T14:17:13.605Z,1.42
2023-06-28T14:19:44.914Z,1.80
2023-06-28T14:22:13.505Z,1.60
2023-06-28T14:24:44.363Z,1.55
2023-06-28T14:27:12.684Z,1.95
2023-06-28T14:29:41.069Z,1.98
2023-06-28T14:32:10.914Z,1.65
2023-06-28T14:34:39.167Z,1.45
2023-06-28T14:37:07.708Z,1.70
2023-06-28T14:39:36.428Z,1.50
2023-06-28T14:42:05.008Z,1.33
2023-06-28T14:44:33.262Z,2.00
2023-06-28T14:47:02.498Z,1.63
2023-06-28T14:49:30.836Z,1.70
2023-06-28T14:52:02.637Z,1.50
2023-06-28T14:54:32.508Z,1.70
2023-06-28T14:57:02.393Z,1.85
2023-06-28T14:59:31.029Z,1.70
2023-06-28T15:01:59.593Z,1.80
2023-06-28T15:04:28.943Z,1.75
2023-06-28T15:06:57.320Z,1.67
2023-06-28T15:09:32.870Z,1.52
2023-06-28T15:12:04.193Z,1.35
2023-06-28T15:14:37.353Z,1.65
2023-06-28T15:17:06.196Z,1.60
2023-06-28T15:19:34.741Z,1.50
2023-06-28T15:22:02.997Z,1.98
2023-06-28T15:24:31.311Z,1.17
2023-06-28T15:26:59.987Z,1.83
2023-06-28T15:29:28.716Z,1.98
2023-06-28T15:31:57.347Z,2.08
2023-06-28T15:34:26.598Z,1.80
2023-06-28T15:36:55.132Z,1.92
2023-06-28T15:39:27.061Z,2.35
2023-06-28T15:42:19.920Z,2.65
2023-06-28T15:44:48.387Z,2.22
2023-06-28T15:47:18.491Z,2.25
2023-06-28T15:49:48.829Z,2.17
2023-06-28T15:52:17.756Z,2.47
2023-06-28T15:54:49.005Z,1.70
2023-06-28T15:57:18.157Z,1.90
2023-06-28T15:59:46.529Z,2.08
2023-06-28T16:02:39.950Z,2.15
2023-06-28T16:05:08.704Z,2.60
2023-06-28T16:07:41.312Z,2.50
2023-06-28T16:10:10.109Z,2.03
2023-06-28T16:12:40.846Z,2.45
2023-06-28T16:15:09.975Z,2.17
2023-06-28T16:17:40.337Z,2.40
2023-06-28T16:20:17.514Z,2.08
2023-06-28T16:22:48.179Z,2.05
2023-06-28T16:25:18.399Z,2.35
2023-06-28T16:27:47.922Z,2.10
2023-06-28T16:30:16.646Z,2.30
2023-06-28T16:32:45.122Z,2.78
2023-06-28T16:35:25.621Z,2.95
2023-06-28T16:40:22.384Z,1.67
2023-06-28T16:42:50.632Z,2.42
2023-06-28T16:45:18.899Z,2.60
2023-06-28T16:47:47.306Z,2.53
2023-06-28T16:50:16.714Z,2.17
2023-06-28T16:52:44.998Z,2.50
2023-06-28T16:55:13.394Z,2.42
2023-06-28T16:57:42.002Z,2.47
2023-06-28T17:00:10.993Z,2.60
2023-06-28T17:02:47.782Z,2.65
2023-06-28T17:05:16.607Z,2.75
2023-06-28T17:07:44.900Z,2.55
2023-06-28T17:10:13.185Z,2.47
2023-06-28T17:12:42.597Z,2.72
2023-06-28T17:15:12.908Z,2.10
2023-06-28T17:17:41.579Z,2.63
2023-06-28T17:20:10.372Z,2.10
2023-06-28T17:22:42.315Z,1.85
2023-06-28T17:25:10.487Z,2.75
2023-06-28T17:27:40.329Z,2.03
2023-06-28T17:30:09.398Z,2.83
2023-06-28T17:32:37.758Z,2.30
2023-06-28T17:35:07.607Z,2.70
2023-06-28T17:37:36.103Z,2.30
2023-06-28T17:40:05.153Z,2.97
2023-06-28T17:42:34.031Z,3.00
2023-06-28T17:45:02.393Z,2.20
2023-06-28T17:47:30.693Z,2.25
2023-06-28T17:49:59.066Z,2.08
2023-06-28T17:52:27.449Z,2.10
2023-06-28T17:54:55.781Z,2.30
2023-06-28T17:57:25.975Z,2.40
2023-06-28T17:59:54.385Z,2.15
2023-06-28T18:02:24.916Z,2.53
2023-06-28T18:07:21.320Z,2.45
2023-06-28T18:09:49.690Z,2.60
2023-06-28T18:12:18.011Z,2.70
2023-06-28T18:14:46.295Z,2.88
2023-06-28T18:17:14.561Z,2.95
2023-06-28T18:19:44.126Z,2.90
2023-06-28T18:22:12.444Z,2.90
2023-06-28T18:24:40.715Z,2.58
2023-06-28T18:27:09.083Z,3.47
2023-06-28T18:29:37.382Z,3.45
2023-06-28T18:32:06.617Z,2.95
2023-06-28T18:34:34.855Z,3.05
2023-06-28T18:37:03.390Z,3.03
2023-06-28T18:39:31.748Z,2.55
2023-06-28T18:42:00.047Z,3.80
2023-06-28T18:44:28.414Z,3.13
2023-06-28T18:46:56.665Z,2.92
2023-06-28T18:49:25.016Z,2.78
2023-06-28T18:51:53.262Z,3.30
2023-06-28T18:54:29.263Z,2.88
2023-06-28T18:56:57.722Z,2.90
2023-06-28T18:59:26.330Z,3.00
2023-06-28T19:01:54.752Z,3.10
2023-06-28T19:04:23.008Z,3.47
2023-06-28T19:06:51.578Z,3.45
2023-06-28T19:09:20.509Z,3.38
2023-06-28T19:11:48.733Z,3.33
2023-06-28T19:14:17.084Z,3.67
2023-06-28T19:16:45.382Z,3.10
2023-06-28T19:19:13.666Z,4.28
2023-06-28T19:21:43.394Z,3.70
2023-06-28T19:24:13.012Z,3.43
2023-06-28T19:26:42.841Z,3.83
2023-06-28T19:29:11.868Z,3.73
2023-06-28T19:31:40.913Z,2.90
2023-06-28T19:34:09.296Z,3.08
2023-06-28T19:36:37.601Z,3.17
2023-06-28T19:39:05.879Z,3.70
2023-06-28T19:41:35.335Z,3.80
2023-06-28T19:44:04.839Z,3.95
2023-06-28T19:46:40.388Z,3.70
2023-06-28T19:49:08.886Z,3.78
2023-06-28T19:51:40.472Z,3.85
2023-06-28T19:54:14.893Z,3.67
2023-06-28T19:56:47.744Z,3.67
2023-06-28T19:59:16.445Z,3.85
2023-06-28T20:01:44.831Z,4.05
2023-06-28T20:04:20.112Z,3.53
2023-06-28T20:06:50.552Z,3.75
2023-06-28T20:09:18.892Z,3.88
2023-06-28T20:11:47.830Z,4.07
2023-06-28T20:14:16.256Z,3.15
2023-06-28T20:16:44.699Z,3.67
2023-06-28T20:19:16.134Z,3.47
2023-06-28T20:21:44.472Z,3.25
2023-06-28T20:24:12.817Z,3.63
2023-06-28T20:26:41.176Z,4.10
2023-06-28T20:29:09.540Z,3.83
2023-06-28T20:31:37.883Z,3.92
2023-06-28T20:34:08.535Z,3.70
2023-06-28T20:39:05.599Z,4.25
2023-06-28T20:41:34.041Z,3.88
2023-06-28T20:44:02.685Z,3.58
2023-06-28T20:46:30.981Z,3.45
2023-06-28T20:48:59.282Z,3.78
2023-06-28T20:51:27.795Z,4.45
2023-06-28T20:53:56.069Z,3.75
2023-06-28T20:56:24.351Z,3.55
2023-06-28T20:58:54.306Z,3.75
2023-06-28T21:01:23.566Z,4.47
2023-06-28T21:03:54.099Z,3.20
2023-06-28T21:06:23.538Z,3.30
2023-06-28T21:08:51.923Z,3.28
2023-06-28T21:11:20.308Z,3.58
2023-06-28T21:13:48.656Z,3.25
2023-06-28T21:16:18.266Z,3.60
2023-06-28T21:18:51.077Z,3.05
2023-06-28T21:21:19.578Z,3.45
2023-06-28T21:23:47.894Z,2.70
2023-06-28T21:26:16.381Z,3.15
2023-06-28T21:28:44.864Z,3.40
2023-06-28T21:31:13.137Z,2.88
2023-06-28T21:33:44.212Z,3.00
2023-06-28T21:36:12.917Z,2.75
2023-06-28T21:38:42.074Z,2.60
2023-06-28T21:41:10.437Z,3.15
2023-06-28T21:43:38.759Z,2.78
2023-06-28T21:46:07.121Z,2.67
2023-06-28T21:48:35.403Z,2.88
2023-06-28T21:51:03.782Z,3.03
2023-06-28T21:53:32.081Z,3.47
2023-06-28T21:56:00.509Z,3.53
2023-06-28T21:58:31.549Z,3.47
2023-06-28T22:00:59.998Z,4.22
2023-06-28T22:03:30.944Z,3.47
2023-06-28T22:05:59.347Z,3.38
2023-06-28T22:08:27.782Z,2.95
2023-06-28T22:10:56.048Z,3.83
2023-06-28T22:13:24.858Z,3.35
2023-06-28T22:15:53.323Z,3.45
2023-06-28T22:18:21.620Z,3.35
2023-06-28T22:20:50.025Z,3.15
2023-06-28T22:23:20.597Z,2.65
2023-06-28T22:28:17.034Z,2.92
2023-06-28T22:30:45.331Z,3.05
2023-06-28T22:33:13.269Z,3.15
2023-06-28T22:35:41.923Z,3.60
2023-06-28T22:38:10.546Z,3.33
2023-06-28T22:40:38.845Z,3.03
2023-06-28T22:43:07.104Z,3.10
2023-06-28T22:45:35.486Z,2.78
2023-06-28T22:48:03.934Z,3.40
2023-06-28T22:50:32.310Z,3.13
2023-06-28T22:53:00.606Z,3.53
2023-06-28T22:55:29.000Z,3.50
2023-06-28T22:57:57.277Z,3.20
2023-06-28T23:00:26.341Z,3.47
2023-06-28T23:02:54.617Z,3.35
2023-06-28T23:05:23.239Z,3.25
2023-06-28T23:07:51.616Z,2.95
2023-06-28T23:10:19.894Z,3.42
2023-06-28T23:12:48.743Z,3.40
2023-06-28T23:15:42.260Z,3.75
2023-06-28T23:18:16.778Z,3.03
2023-06-28T23:20:45.072Z,3.38
2023-06-28T23:23:14.037Z,3.72
2023-06-28T23:25:43.265Z,2.80
2023-06-28T23:28:11.974Z,3.03
2023-06-28T23:30:40.339Z,3.33
2023-06-28T23:33:08.666Z,2.95
2023-06-28T23:35:41.839Z,3.15
2023-06-28T23:38:13.416Z,3.78
2023-06-28T23:40:45.197Z,3.50
2023-06-28T23:43:13.734Z,3.05
2023-06-28T23:45:43.082Z,3.05
2023-06-28T23:48:11.794Z,2.70
2023-06-28T23:50:40.043Z,2.72
2023-06-28T23:53:08.320Z,2.83
2023-06-28T23:55:38.544Z,3.10
2023-06-28T23:58:06.819Z,3.22
